秋田空港の過去48時間の天気

秋田空港 (Akita)

現在時刻: 1/20 00:40 JST (1/19 15:40 UTC) 以下の時間は現地時間です。

過去48時間のMETAR気象情報
時間 風向 風速(m/s) 視程 気温(℃) 湿度(%) 気圧(hPa) 天気現象
19 21:00 西北西 4 10km以上 2 60 1017
19 20:00 西北西 6 10km以上 2 60 1018
19 19:00 西北西 6 10km以上 2 60 1018
19 18:00 西北西 6 10km以上 2 60 1019
19 17:00 西 8 10km以上 3 56 1019
19 16:00 西 9 10km以上 3 52 1019
19 15:00 西 9 10km以上 3 56 1019 周辺でしゅう雨
19 14:00 西 8 10km以上 3 56 1018 周辺でしゅう雨
19 13:00 西 11 10km以上 3 52 1019 周辺でしゅう雨
19 12:00 西北西 5 10km以上 3 56 1019 弱いしゅう雪
19 11:00 西北西 6 10km以上 2 64 1020 弱いしゅう雪
19 10:23 西北西 6 10km以上 1 64 1020 弱いしゅう雪
19 10:16 西北西 6 3000m 1 64 1020 弱いしゅう雪
19 10:00 西北西 6 10km以上 1 60 1021 弱いしゅう雪
19 09:00 北北西 3 10km以上 0 59 1020 周辺でしゅう雨
19 08:00 2 10km以上 1 55 1020
19 07:00 2 10km以上 0 64 1020
19 06:40 北西 4 10km以上 1 55 1020 弱いしゅう雪
18 21:45 北西 7 1800m -2 86 1018 弱いしゅう雪
18 21:35 北西 6 3000m -2 86 1018 弱いしゅう雪
18 21:14 西北西 7 3000m -1 74 1018 弱いしゅう雪
18 21:00 西北西 7 8000m -1 69 1017 弱いしゅう雪
18 20:00 北西 3 8000m -1 74 1017 弱いしゅう雪
18 19:00 北西 5 8000m -1 74 1017 弱いしゅう雪
18 18:00 北西 6 10km以上 -1 69 1016 弱いしゅう雪
18 17:00 西 8 8000m -1 74 1016 弱いしゅう雪
18 16:44 西北西 8 6000m -2 80 1015 弱いしゅう雪
18 16:00 北西 6 3000m -2 86 1015 弱いしゅう雪
18 15:48 西北西 6 3000m -2 86 1015 弱いしゅう雪
18 15:38 西北西 6 800m -2 86 1015 しゅう雪
18 15:20 北西 7 800m -2 86 1015 しゅう雪
18 15:00 西北西 8 4000m -1 74 1015 弱いしゅう雪
18 14:38 西北西 10 2500m 0 59 1014 弱いしゅう雪
18 14:00 西北西 12 10km以上 -1 74 1014 弱いしゅう雪
18 13:50 西北西 10 3000m -1 74 1014 弱いしゅう雪
18 13:39 西北西 12 1600m -2 80 1014 弱いしゅう雪
18 13:27 西北西 9 10km以上 0 64 1013 弱いしゅう雪
18 13:15 西北西 10 2500m 0 64 1014 弱いしゅう雪
18 13:00 西北西 10 10km以上 -1 74 1014 周辺でしゅう雨
18 12:11 西北西 9 8000m -1 69 1014 弱いしゅう雪
18 12:00 西北西 10 4000m -1 74 1014 弱いしゅう雪
18 11:49 北西 9 1200m -1 74 1014 弱いしゅう雪
18 11:00 西北西 10 10km以上 0 59 1014 弱いしゅう雪
18 10:36 西北西 8 8000m -1 74 1015 弱いしゅう雪
18 10:29 西北西 8 4500m -2 80 1015 弱いしゅう雪
18 10:06 西北西 9 2000m -2 74 1015 弱いしゅう雪
18 09:49 北西 8 5000m -2 74 1015 弱いしゅう雪
18 09:22 西北西 5 5000m -2 80 1014 弱いしゅう雪
18 09:00 北西 7 1600m -3 86 1014 弱いしゅう雪
18 08:42 西北西 6 8000m -3 93 1014 弱いしゅう雪
18 08:38 北西 6 3000m -3 86 1014 弱いしゅう雪
18 08:27 北西 6 1000m -3 86 1014 弱いしゅう雪
18 08:10 北西 7 1200m -3 86 1014 弱いしゅう雪
18 08:00 北西 7 700m -3 86 1014 しゅう雪
18 07:46 北西 6 1600m -3 86 1013 弱いしゅう雪
18 07:34 北西 7 2000m -3 86 1013 弱いしゅう雪 弱いしゅうあられ
18 07:17 西北西 6 4500m -3 80 1013 弱いしゅう雪
18 07:00 西北西 9 3000m -3 80 1013 弱いしゅう雪
18 06:40 北西 7 1600m -3 86 1013 弱いしゅう雪
RJSK 191200Z 29008KT 9999 FEW030 BKN040 02/M05 Q1017
RJSK 191100Z 29011KT 9999 FEW025 BKN040 02/M05 Q1018
RJSK 191000Z 29012KT 9999 FEW025 BKN040 02/M05 Q1018
RJSK 190900Z 29012KT 9999 FEW025 BKN040 02/M05 Q1019
RJSK 190800Z 28016KT 9999 FEW025 BKN040 03/M05 Q1019
RJSK 190700Z 27017KT 9999 FEW010 SCT020 BKN040 03/M06 Q1019
RJSK 190600Z 27018KT 9999 VCSH FEW010 SCT025 BKN040 03/M05 Q1019
RJSK 190500Z 28016KT 9999 VCSH FEW010 SCT030 BKN045 03/M05 Q1018
RJSK 190400Z 28021KT 9999 VCSH FEW007 SCT030 BKN045 03/M06 Q1019
RJSK 190300Z 29010KT 260V320 9999 -SHSN FEW007 SCT030 BKN040 03/M05 Q1019
RJSK 190200Z 30011KT 270V350 9999 -SHSN FEW007 SCT030 BKN035 02/M04 Q1020
RJSK 190123Z 29012KT 9999 -SHSN FEW007 SCT030 BKN035 01/M05 Q1020 RMK 1ST007 3CU030 5CU035 A3014
RJSK 190116Z 30011KT 3000 -SHSN FEW007 SCT025 BKN030 01/M05 Q1020 RMK 1ST007 3CU025 5CU030 A3015 9999E-SE
RJSK 190100Z 30012KT 9999 -SHSN FEW007 SCT030 BKN040 01/M06 Q1021
RJSK 190000Z 33006KT 300V010 9999 VCSH FEW007 SCT040 BKN050 00/M07 Q1020
RJSK 182300Z 01004KT 9999 FEW007 SCT040 BKN050 01/M07 Q1020
RJSK 182200Z 01003KT 330V050 9999 FEW007 SCT040 BKN045 00/M06 Q1020
RJSK 182140Z 31007KT 280V020 9999 -SHSN FEW007 SCT030 BKN040 01/M07 Q1020 RMK 1ST007 3CU030 6CU040 A3012
RJSK 181245Z 32013G23KT 290V350 1800 R28/1500VP2000N -SHSN FEW002 BKN006 BKN010 M02/M04 Q1018 RMK 1ST002 5ST006 6ST010 A3007
RJSK 181235Z 32012KT 3000 -SHSN FEW005 BKN010 BKN015 M02/M04 Q1018 RMK 1ST005 5ST010 6CU015 A3007
RJSK 181214Z 30014KT 3000 -SHSN FEW005 BKN010 BKN015 M01/M05 Q1018 RMK 1ST005 5ST010 6CU015 A3006
RJSK 181200Z 30014KT 8000 -SHSN FEW010 SCT020 BKN035 M01/M06 Q1017
RJSK 181100Z 31006KT 8000 -SHSN FEW010 SCT020 BKN035 M01/M05 Q1017
RJSK 181000Z 31009G21KT 280V350 8000 -SHSN FEW008 BKN020 BKN030 M01/M05 Q1017
RJSK 180900Z 31011KT 280V350 9999 -SHSN FEW008 SCT020 BKN030 M01/M06 Q1016
RJSK 180800Z 28016KT 8000 R28/2000N -SHSN FEW005 SCT010 BKN015 M01/M05 Q1016
RJSK 180744Z 29015KT 6000 -SHSN FEW004 SCT008 BKN015 M02/M05 Q1015 RMK 1ST004 3ST008 6CU015 A3000
RJSK 180700Z 31011KT 280V340 3000 -SHSN FEW002 BKN008 BKN015 M02/M04 Q1015
RJSK 180648Z 30012KT 270V330 3000 R28/1000VP2000U -SHSN FEW002 BKN008 BKN015 M02/M04 Q1015 RMK 1ST002 5ST008 6CU015 A2998
RJSK 180638Z 30012KT 0800 R28/1100VP2000U SHSN FEW002 BKN004 BKN008 M02/M04 Q1015 RMK 1ST002 5ST004 6ST008 A2999
RJSK 180620Z 31013KT 280V340 0800 R28/0700VP2000D SHSN FEW002 BKN004 BKN008 M02/M04 Q1015 RMK 1ST002 5ST004 6ST008 A2998
RJSK 180600Z 30016KT 4000 -SHSN FEW005 BKN015 BKN020 M01/M05 Q1015
RJSK 180538Z 29020G30KT 2500 -SHSN FEW002 SCT008 BKN010 M00/M07 Q1014 RMK 1ST002 3ST008 6ST010 A2997
RJSK 180500Z 29023KT 9999 -SHSN FEW008 SCT015 BKN025 M01/M05 Q1014
RJSK 180450Z 30019KT 3000 R28/0650VP2000U -SHSN FEW004 SCT008 BKN012 M01/M05 Q1014 RMK 1ST004 3ST008 6ST012 A2995
RJSK 180439Z 30023G37KT 1600 R28/1000VP2000D -SHSN FEW002 BKN006 BKN010 M02/M05 Q1014 RMK 1ST002 5ST006 6ST010 A2995
RJSK 180427Z 29018KT 9999 -SHSN FEW005 SCT015 BKN035 M00/M06 Q1013 RMK 1ST005 3CU015 5CU035 A2994 WS PS 20KT OBS AT 0414Z ON FNA RWY28 500FT DH8D
RJSK 180415Z 30019KT 2500 -SHSN FEW010 SCT020 BKN030 M00/M06 Q1014 RMK 1CU010 3CU020 5CU030 A2994
RJSK 180400Z 30020G31KT 9999 VCSH FEW015 SCT030 BKN045 M01/M05 Q1014
RJSK 180311Z 30018KT 8000 R28/1600VP2000N -SHSN FEW005 SCT025 BKN040 M01/M06 Q1014 RMK 1ST005 3CU025 5CU040 A2995
RJSK 180300Z 29019KT 4000 -SHSN FEW005 SCT015 BKN025 M01/M05 Q1014
RJSK 180249Z 31017G27KT 280V350 1200 R28/1300VP2000D -SHSN FEW005 SCT008 BKN013 M01/M05 Q1014 RMK 1ST005 3ST008 5CU013 A2995
RJSK 180200Z 29020KT 9999 -SHSN FEW008 SCT025 BKN045 M00/M07 Q1014
RJSK 180136Z 30015KT 280V340 8000 R28/2000N -SHSN FEW006 SCT015 BKN020 M01/M05 Q1015 RMK 1ST006 3CU015 5CU020 A2997
RJSK 180129Z 30015KT 4500 R28/2000N -SHSN FEW006 SCT015 BKN020 M02/M05 Q1015 RMK 1ST006 3CU015 5CU020 A2997
RJSK 180106Z 29017KT 2000 -SHSN FEW006 SCT012 BKN017 M02/M06 Q1015 RMK 1ST006 3CU012 5CU017 A2998
RJSK 180049Z 31015KT 5000 R28/1500VP2000N -SHSN FEW008 SCT015 BKN025 M02/M06 Q1015 RMK 1ST008 3CU015 5CU025 A2997
RJSK 180022Z 30010KT 5000 R28/2000N -SHSN FEW006 SCT012 BKN020 M02/M05 Q1014 RMK 1ST006 3CU012 5CU020 A2997
RJSK 180000Z 32014KT 1600 R28/1100VP2000D -SHSN FEW004 SCT007 BKN010 M03/M05 Q1014
RJSK 172342Z 30011KT 8000 R28/1000VP2000U -SHSN FEW004 SCT010 BKN020 M03/M04 Q1014 RMK 1ST004 3CU010 5CU020 A2995
RJSK 172338Z 31012KT 270V330 3000 R28/1000V2000U -SHSN FEW004 SCT008 BKN015 M03/M05 Q1014 RMK 1ST004 3ST008 5CU015 A2995
RJSK 172327Z 31011KT 1000 R28/P2000N -SHSN FEW004 SCT010 BKN017 M03/M05 Q1014 RMK 1ST004 3CU010 5CU017 A2995
RJSK 172310Z 32014KT 1200 R28/1200VP2000U -SHSN FEW004 SCT010 BKN015 M03/M05 Q1014 RMK 1ST004 3CU010 5CU015 A2995
RJSK 172300Z 32014KT 0700 R28/1300VP2000D SHSN FEW004 SCT007 BKN010 M03/M05 Q1014
RJSK 172246Z 32012G22KT 1600 R28/2000N -SHSN FEW005 SCT010 BKN015 M03/M05 Q1013 RMK 1ST005 3CU010 5CU015 A2993
RJSK 172234Z 32013G24KT 280V350 2000 R28/2000N -SHSNGS FEW005 SCT010 BKN015 M03/M05 Q1013 RMK 1ST005 3CU010 5CU015 A2993 SNOW PELLETS
RJSK 172217Z 30011KT 4500 R28/2000N -SHSN FEW005 SCT015 BKN025 M03/M06 Q1013 RMK 1ST005 3CU015 5CU025 A2993
RJSK 172200Z 30017G29KT 3000 R28/1300VP2000U -SHSN FEW003 SCT006 BKN012 M03/M06 Q1013
RJSK 172140Z 31013KT 1600 -SHSN FEW003 SCT006 BKN010 M03/M05 Q1013 RMK 1ST003 3ST006 5CU010 A2992